Time;durP1;ratioP1;P1;durP2;ratioP2;P2;SDS_P1;SDS_P2;PMS_P1;PMS_P2;Temp;Humidity;BMP_temperature;BMP_pressure;BME280_temperature;BME280_humidity;BME280_pressure;Samples;Min_cycle;Max_cycle;Signal;HPM_P1;HPM_P2
2022/09/16 00:02:57;;;;;;;;;;;11.90;99.90;;;;;;12580391;28;19936;-35
2022/09/16 00:09:02;;;;;;;;;;;11.90;99.90;;;;;;12558369;28;20403;-35
2022/09/16 00:15:04;;;;;;;;;;;11.80;99.90;;;;;;12578922;28;19932;-35
2022/09/16 00:21:08;;;;;;;;;;;11.90;99.90;;;;;;12575842;28;19932;-35
2022/09/16 00:27:09;;;;;;;;;;;11.90;99.90;;;;;;12547263;28;21312;-35
2022/09/16 00:33:12;;;;;;;;;;;12.00;99.90;;;;;;12585510;28;19935;-35
2022/09/16 00:39:14;;;;;;;;;;;11.90;99.90;;;;;;12559489;28;20399;-40
2022/09/16 00:45:18;;;;;;;;;;;11.90;99.90;;;;;;12573564;28;20029;-40
2022/09/16 00:51:20;;;;;;;;;;;11.90;99.90;;;;;;12561235;28;19924;-40
2022/09/16 00:57:22;;;;;;;;;;;12.00;99.90;;;;;;12574042;28;19925;-40
2022/09/16 01:03:25;;;;;;;;;;;11.90;99.90;;;;;;12568523;28;19924;-39
2022/09/16 01:09:28;;;;;;;;;;;11.90;99.90;;;;;;12565731;28;19933;-40
2022/09/16 01:15:39;;;;;;;;;;;11.90;99.90;;;;;;12567237;28;19924;-41
2022/09/16 01:21:41;;;;;;;;;;;11.80;99.90;;;;;;12568295;28;19925;-40
2022/09/16 01:27:55;;;;;;;;;;;11.90;99.90;;;;;;12566947;28;19924;-40
2022/09/16 01:34:03;;;;;;;;;;;11.80;99.90;;;;;;12572849;28;20019;-40
2022/09/16 01:40:15;;;;;;;;;;;11.90;99.90;;;;;;12578419;28;20269;-39
2022/09/16 01:46:21;;;;;;;;;;;11.90;99.90;;;;;;12543553;28;19933;-41
2022/09/16 01:52:36;;;;;;;;;;;11.90;99.90;;;;;;12584449;28;19948;-40
2022/09/16 01:58:44;;;;;;;;;;;11.80;99.90;;;;;;12580675;28;20238;-39
2022/09/16 02:04:48;;;;;;;;;;;11.90;99.90;;;;;;12583162;28;20326;-40
2022/09/16 02:10:53;;;;;;;;;;;11.80;99.90;;;;;;12592311;28;19931;-40
2022/09/16 02:16:54;;;;;;;;;;;11.70;99.90;;;;;;12591879;28;20390;-40
2022/09/16 02:22:59;;;;;;;;;;;11.60;99.90;;;;;;12597706;28;19932;-40
2022/09/16 02:29:01;;;;;;;;;;;11.70;99.90;;;;;;12588509;28;19932;-40
2022/09/16 02:35:05;;;;;;;;;;;11.60;99.90;;;;;;12587556;28;19930;-39
2022/09/16 02:41:13;;;;;;;;;;;11.60;99.90;;;;;;12580813;28;19932;-40
2022/09/16 02:47:18;;;;;;;;;;;11.60;99.90;;;;;;12566704;28;20031;-40
2022/09/16 02:53:29;;;;;;;;;;;11.50;99.90;;;;;;12557331;28;19931;-40
2022/09/16 02:59:32;;;;;;;;;;;11.50;99.90;;;;;;12567238;28;19937;-41
2022/09/16 03:05:33;;;;;;;;;;;11.60;99.90;;;;;;12589944;28;19925;-40
2022/09/16 03:11:41;;;;;;;;;;;11.60;99.90;;;;;;12573533;28;19925;-40
2022/09/16 03:17:46;;;;;;;;;;;11.60;99.90;;;;;;12557227;28;19947;-41
2022/09/16 03:24:06;;;;;;;;;;;11.60;99.90;;;;;;12555746;28;20391;-40
2022/09/16 03:30:09;;;;;;;;;;;11.50;99.90;;;;;;12525954;28;19925;-40
2022/09/16 03:36:13;;;;;;;;;;;11.50;99.90;;;;;;12524404;28;19978;-40
2022/09/16 03:42:16;;;;;;;;;;;11.30;99.90;;;;;;12529896;28;19925;-41
2022/09/16 03:48:17;;;;;;;;;;;11.30;99.90;;;;;;12514007;28;20043;-40
2022/09/16 03:54:20;;;;;;;;;;;11.30;99.90;;;;;;12506326;28;20400;-40
2022/09/16 04:00:22;;;;;;;;;;;11.30;99.90;;;;;;12526938;28;19925;-40
2022/09/16 04:06:23;;;;;;;;;;;11.20;99.90;;;;;;12532380;28;20319;-40
2022/09/16 04:12:25;;;;;;;;;;;11.30;99.90;;;;;;12524101;28;20435;-40
2022/09/16 04:18:29;;;;;;;;;;;11.30;99.90;;;;;;12513813;28;20304;-40
2022/09/16 04:24:31;;;;;;;;;;;11.40;99.90;;;;;;12513628;28;20384;-40
2022/09/16 04:30:33;;;;;;;;;;;11.20;99.90;;;;;;12572018;28;19971;-40
2022/09/16 04:36:34;;;;;;;;;;;11.30;99.90;;;;;;12574900;28;19932;-40
2022/09/16 04:42:36;;;;;;;;;;;11.30;99.90;;;;;;12582757;28;19931;-40
2022/09/16 04:48:38;;;;;;;;;;;11.20;99.90;;;;;;12590040;28;20410;-41
2022/09/16 04:54:40;;;;;;;;;;;11.20;99.90;;;;;;12567300;28;20371;-40
2022/09/16 05:00:42;;;;;;;;;;;11.20;99.90;;;;;;12565676;28;19924;-40
2022/09/16 05:06:43;;;;;;;;;;;11.20;99.90;;;;;;12581706;28;20265;-40
2022/09/16 05:12:49;;;;;;;;;;;11.20;99.90;;;;;;12577829;28;19924;-40
2022/09/16 05:18:53;;;;;;;;;;;11.20;99.90;;;;;;12582654;28;19924;-40
2022/09/16 05:24:54;;;;;;;;;;;11.30;99.90;;;;;;12599588;28;19935;-40
2022/09/16 05:31:06;;;;;;;;;;;11.20;99.90;;;;;;12577665;28;19924;-40
2022/09/16 05:37:07;;;;;;;;;;;11.10;99.90;;;;;;12581091;28;20296;-40
2022/09/16 05:43:09;;;;;;;;;;;11.10;99.90;;;;;;12586862;28;19940;-40
2022/09/16 05:49:11;;;;;;;;;;;11.10;99.90;;;;;;12572309;28;20027;-40
2022/09/16 05:55:13;;;;;;;;;;;11.20;99.90;;;;;;12568208;28;19948;-40
2022/09/16 06:01:19;;;;;;;;;;;11.20;99.90;;;;;;12571220;28;19935;-39
2022/09/16 06:07:20;;;;;;;;;;;11.30;99.90;;;;;;12591666;28;20392;-41
2022/09/16 06:13:22;;;;;;;;;;;11.30;99.90;;;;;;12585709;28;19947;-40
2022/09/16 06:19:24;;;;;;;;;;;11.40;99.90;;;;;;12580813;28;20008;-40
2022/09/16 06:25:25;;;;;;;;;;;11.40;99.90;;;;;;12592347;28;19924;-40
2022/09/16 06:31:27;;;;;;;;;;;11.50;99.90;;;;;;12576908;28;20331;-40
2022/09/16 06:37:29;;;;;;;;;;;11.50;99.90;;;;;;12567760;28;19924;-40
2022/09/16 06:43:31;;;;;;;;;;;11.50;99.90;;;;;;12585456;28;19924;-41
2022/09/16 06:49:33;;;;;;;;;;;11.40;99.90;;;;;;12577047;28;19931;-41
2022/09/16 06:55:34;;;;;;;;;;;11.40;99.90;;;;;;12580435;28;19928;-40
2022/09/16 07:01:37;;;;;;;;;;;11.40;99.90;;;;;;12567007;28;19925;-40
2022/09/16 07:07:40;;;;;;;;;;;11.50;99.90;;;;;;12583908;28;20399;-40
2022/09/16 07:13:42;;;;;;;;;;;11.50;99.90;;;;;;12576684;28;19932;-40
2022/09/16 07:19:44;;;;;;;;;;;11.50;99.90;;;;;;12572009;28;20279;-39
2022/09/16 07:25:46;;;;;;;;;;;11.60;99.90;;;;;;12573368;28;19932;-39
2022/09/16 07:31:48;;;;;;;;;;;11.80;99.90;;;;;;12584321;28;20134;-40
2022/09/16 07:37:50;;;;;;;;;;;11.90;99.90;;;;;;12556191;28;19932;-41
2022/09/16 07:43:57;;;;;;;;;;;12.00;99.90;;;;;;12578951;28;19936;-40
2022/09/16 07:49:59;;;;;;;;;;;12.10;99.90;;;;;;12567047;28;20380;-40
2022/09/16 07:56:02;;;;;;;;;;;12.30;99.90;;;;;;12571964;28;19928;-40
2022/09/16 08:02:04;;;;;;;;;;;12.30;99.90;;;;;;12553958;28;20002;-40
2022/09/16 08:08:06;;;;;;;;;;;12.40;99.90;;;;;;12577732;28;19940;-41
2022/09/16 08:14:08;;;;;;;;;;;12.50;99.90;;;;;;12572349;28;19928;-40
2022/09/16 08:20:10;;;;;;;;;;;12.60;99.90;;;;;;12565806;28;19950;-40
2022/09/16 08:26:12;;;;;;;;;;;12.70;99.90;;;;;;12580989;28;19985;-39
2022/09/16 08:32:14;;;;;;;;;;;12.90;99.90;;;;;;12567921;28;19924;-40
2022/09/16 08:38:16;;;;;;;;;;;13.10;99.90;;;;;;12552948;28;20023;-40
2022/09/16 08:44:24;;;;;;;;;;;13.20;99.90;;;;;;12578825;28;19978;-40
2022/09/16 08:50:32;;;;;;;;;;;13.40;99.90;;;;;;12570120;28;19925;-40
2022/09/16 08:56:35;;;;;;;;;;;13.50;99.90;;;;;;12539193;28;19946;-40
2022/09/16 09:02:51;;;;;;;;;;;13.50;99.90;;;;;;12560364;28;19936;-41
2022/09/16 09:09:12;;;;;;;;;;;13.70;99.90;;;;;;12580030;28;19931;-40
2022/09/16 09:15:32;;;;;;;;;;;13.80;99.90;;;;;;12579335;28;20284;-42
2022/09/16 09:21:47;;;;;;;;;;;13.80;99.90;;;;;;12556964;28;19924;-41
2022/09/16 09:28:04;;;;;;;;;;;14.10;99.90;;;;;;12542938;28;19932;-40
2022/09/16 09:34:12;;;;;;;;;;;14.20;99.90;;;;;;12575597;28;20363;-42
2022/09/16 09:40:13;;;;;;;;;;;14.10;99.90;;;;;;12566941;28;21361;-40
2022/09/16 09:46:23;;;;;;;;;;;14.30;99.90;;;;;;12579999;28;20035;-42
2022/09/16 09:52:25;;;;;;;;;;;14.60;99.90;;;;;;12572779;28;20430;-40
2022/09/16 09:58:33;;;;;;;;;;;14.80;99.90;;;;;;12560458;28;20368;-40
2022/09/16 10:04:37;;;;;;;;;;;15.20;99.90;;;;;;12566279;28;19932;-40
2022/09/16 10:10:44;;;;;;;;;;;15.60;99.90;;;;;;12582237;28;19935;-40
2022/09/16 10:16:49;;;;;;;;;;;15.70;99.90;;;;;;12578744;28;19928;-40
2022/09/16 10:22:54;;;;;;;;;;;15.30;99.90;;;;;;12576869;28;20291;-40
2022/09/16 10:29:01;;;;;;;;;;;15.00;99.90;;;;;;12546323;28;19928;-41
2022/09/16 10:35:05;;;;;;;;;;;14.70;99.90;;;;;;12571097;28;19928;-41
2022/09/16 10:41:14;;;;;;;;;;;15.00;99.90;;;;;;12593747;28;20168;-41
2022/09/16 10:47:22;;;;;;;;;;;15.40;99.90;;;;;;12580414;28;20269;-41
2022/09/16 10:53:32;;;;;;;;;;;15.60;99.90;;;;;;12557991;28;19925;-40
2022/09/16 10:59:39;;;;;;;;;;;15.50;99.90;;;;;;12573694;28;20081;-40
2022/09/16 11:05:41;;;;;;;;;;;15.50;99.90;;;;;;12581593;28;19939;-40
2022/09/16 11:12:02;;;;;;;;;;;15.90;99.90;;;;;;12567531;28;19925;-40
2022/09/16 11:18:08;;;;;;;;;;;16.30;99.90;;;;;;12573121;28;20172;-38
2022/09/16 11:24:09;;;;;;;;;;;16.70;99.90;;;;;;12582211;28;19932;-39
2022/09/16 11:30:13;;;;;;;;;;;16.30;99.90;;;;;;12570202;28;20021;-38
2022/09/16 11:36:22;;;;;;;;;;;15.80;99.90;;;;;;12566284;28;19960;-39
2022/09/16 11:42:33;;;;;;;;;;;15.70;99.90;;;;;;12548927;28;20395;-38
2022/09/16 11:48:40;;;;;;;;;;;15.10;99.90;;;;;;12559567;28;19925;-38
2022/09/16 11:54:56;;;;;;;;;;;14.60;99.90;;;;;;12564639;28;20444;-41
2022/09/16 12:01:01;;;;;;;;;;;14.50;99.90;;;;;;12572348;28;19958;-41
2022/09/16 12:07:09;;;;;;;;;;;14.60;99.90;;;;;;12579737;28;20053;-40
2022/09/16 12:13:14;;;;;;;;;;;14.10;99.90;;;;;;12580203;28;19932;-39
2022/09/16 12:19:32;;;;;;;;;;;13.30;99.90;;;;;;12566798;28;19925;-38
2022/09/16 12:25:38;;;;;;;;;;;13.00;99.90;;;;;;12578694;28;19977;-38
2022/09/16 12:32:15;;;;;;;;;;;13.80;99.90;;;;;;12564999;28;19969;-38
2022/09/16 12:38:17;;;;;;;;;;;14.70;99.90;;;;;;12559793;28;19925;-38
2022/09/16 12:44:28;;;;;;;;;;;15.20;99.90;;;;;;12557883;28;19924;-39
2022/09/16 12:50:54;;;;;;;;;;;15.80;99.90;;;;;;12575640;28;19928;-38
2022/09/16 12:57:15;;;;;;;;;;;15.90;99.90;;;;;;12564888;28;19928;-39
2022/09/16 13:03:21;;;;;;;;;;;16.10;99.90;;;;;;12582690;28;19924;-38
2022/09/16 13:09:26;;;;;;;;;;;16.40;99.90;;;;;;12580022;28;20368;-39
2022/09/16 13:15:29;;;;;;;;;;;16.30;99.90;;;;;;12566682;28;19929;-39
2022/09/16 13:21:38;;;;;;;;;;;16.30;99.90;;;;;;12561065;28;20376;-38
2022/09/16 13:27:51;;;;;;;;;;;16.50;99.90;;;;;;12580728;28;19928;-38
2022/09/16 13:33:57;;;;;;;;;;;16.70;99.90;;;;;;12539289;28;19925;-38
2022/09/16 13:40:19;;;;;;;;;;;16.50;99.90;;;;;;12576556;28;20411;-39
2022/09/16 13:46:34;;;;;;;;;;;16.20;99.90;;;;;;12546828;28;19936;-38
2022/09/16 13:52:37;;;;;;;;;;;16.00;99.90;;;;;;12547576;28;19929;-38
2022/09/16 13:58:59;;;;;;;;;;;16.30;99.90;;;;;;12570836;28;20506;-38
2022/09/16 14:05:01;;;;;;;;;;;15.90;99.90;;;;;;12549782;28;19932;-37
2022/09/16 14:11:25;;;;;;;;;;;15.50;99.90;;;;;;12586465;28;19936;-38
2022/09/16 14:17:36;;;;;;;;;;;15.50;99.90;;;;;;12588699;28;19931;-38
2022/09/16 14:23:38;;;;;;;;;;;15.40;99.90;;;;;;12581176;28;20163;-38
2022/09/16 14:29:52;;;;;;;;;;;14.60;99.90;;;;;;12584156;28;19932;-38
2022/09/16 14:35:55;;;;;;;;;;;13.40;99.90;;;;;;12555170;28;19936;-38
2022/09/16 14:42:16;;;;;;;;;;;13.50;99.90;;;;;;12564591;28;19959;-38
2022/09/16 14:48:19;;;;;;;;;;;12.80;99.90;;;;;;12577009;28;19946;-38
2022/09/16 14:54:22;;;;;;;;;;;12.30;99.90;;;;;;12580862;28;20033;-37
2022/09/16 15:00:27;;;;;;;;;;;12.30;99.90;;;;;;12596416;28;19924;-38
2022/09/16 15:06:32;;;;;;;;;;;12.30;99.90;;;;;;12549625;28;19986;-37
2022/09/16 15:12:42;;;;;;;;;;;12.40;99.90;;;;;;12574262;28;19928;-38
2022/09/16 15:18:51;;;;;;;;;;;13.00;99.90;;;;;;12574179;28;19924;-38
2022/09/16 15:24:54;;;;;;;;;;;13.90;99.90;;;;;;12563739;28;19925;-38
2022/09/16 15:30:56;;;;;;;;;;;14.40;99.90;;;;;;12550721;28;19926;-38
2022/09/16 15:37:00;;;;;;;;;;;14.80;99.90;;;;;;12564905;28;19979;-38
2022/09/16 15:43:01;;;;;;;;;;;14.40;99.90;;;;;;12588633;28;19983;-38
2022/09/16 15:49:10;;;;;;;;;;;14.70;99.90;;;;;;12557864;28;19947;-38
2022/09/16 15:55:11;;;;;;;;;;;15.00;99.90;;;;;;12579293;28;19935;-40
2022/09/16 16:01:36;;;;;;;;;;;14.80;99.90;;;;;;12584165;28;20388;-39
2022/09/16 16:07:42;;;;;;;;;;;14.80;99.90;;;;;;12574055;28;19929;-38
2022/09/16 16:13:44;;;;;;;;;;;14.50;99.90;;;;;;12583551;28;19932;-38
2022/09/16 16:19:47;;;;;;;;;;;14.40;99.90;;;;;;12556326;28;19932;-39
2022/09/16 16:25:48;;;;;;;;;;;14.30;99.90;;;;;;12571867;28;19939;-38
2022/09/16 16:32:05;;;;;;;;;;;14.20;99.90;;;;;;12555402;28;19924;-39
2022/09/16 16:38:09;;;;;;;;;;;14.20;99.90;;;;;;12563581;28;20211;-39
2022/09/16 16:44:11;;;;;;;;;;;14.20;99.90;;;;;;12576219;28;20787;-39
2022/09/16 16:50:15;;;;;;;;;;;14.10;99.90;;;;;;12564872;28;19936;-38
2022/09/16 16:56:16;;;;;;;;;;;14.00;99.90;;;;;;12564865;28;20673;-38
2022/09/16 17:02:18;;;;;;;;;;;14.00;99.90;;;;;;12558901;28;19928;-39
2022/09/16 17:08:20;;;;;;;;;;;13.70;99.90;;;;;;12585568;28;19965;-39
2022/09/16 17:14:23;;;;;;;;;;;13.60;99.90;;;;;;12583022;28;19932;-39
2022/09/16 17:20:25;;;;;;;;;;;13.50;99.90;;;;;;12566378;28;19924;-38
2022/09/16 17:26:27;;;;;;;;;;;13.50;99.90;;;;;;12590708;28;20399;-38
2022/09/16 17:32:30;;;;;;;;;;;13.40;99.90;;;;;;12593132;28;20312;-38
2022/09/16 17:38:32;;;;;;;;;;;13.30;99.90;;;;;;12575966;28;19936;-38
2022/09/16 17:44:34;;;;;;;;;;;13.30;99.90;;;;;;12577115;28;19924;-39
2022/09/16 17:50:37;;;;;;;;;;;13.20;99.90;;;;;;12545786;28;19925;-38
2022/09/16 17:56:41;;;;;;;;;;;13.20;99.90;;;;;;12595242;28;20398;-38
2022/09/16 18:02:43;;;;;;;;;;;13.10;99.90;;;;;;12579286;28;19924;-38
2022/09/16 18:08:45;;;;;;;;;;;13.00;99.90;;;;;;12597266;28;19928;-38
2022/09/16 18:14:47;;;;;;;;;;;13.10;99.90;;;;;;12585599;28;19925;-38
2022/09/16 18:20:52;;;;;;;;;;;13.00;99.90;;;;;;12593389;28;19935;-39
2022/09/16 18:26:54;;;;;;;;;;;13.00;99.90;;;;;;12576324;28;19925;-38
2022/09/16 18:32:56;;;;;;;;;;;13.00;99.90;;;;;;12571793;28;19924;-38
2022/09/16 18:38:58;;;;;;;;;;;13.00;99.90;;;;;;12586437;28;19924;-38
2022/09/16 18:44:59;;;;;;;;;;;12.90;99.90;;;;;;12593405;28;19939;-37
2022/09/16 18:51:01;;;;;;;;;;;12.80;99.90;;;;;;12582607;28;19966;-38
2022/09/16 18:57:03;;;;;;;;;;;12.60;99.90;;;;;;12584815;28;20011;-38
2022/09/16 19:03:06;;;;;;;;;;;12.50;99.90;;;;;;12576187;28;20089;-38
2022/09/16 19:09:09;;;;;;;;;;;12.50;99.90;;;;;;12580304;28;19924;-38
2022/09/16 19:15:11;;;;;;;;;;;12.20;99.90;;;;;;12574924;28;19928;-38
2022/09/16 19:21:17;;;;;;;;;;;12.00;99.90;;;;;;12578982;28;20066;-38
2022/09/16 19:27:19;;;;;;;;;;;11.90;99.90;;;;;;12591334;28;19928;-38
2022/09/16 19:33:21;;;;;;;;;;;11.80;99.90;;;;;;12562852;28;19925;-38
2022/09/16 19:39:23;;;;;;;;;;;11.70;99.90;;;;;;12580390;28;20390;-38
2022/09/16 19:45:25;;;;;;;;;;;11.60;99.90;;;;;;12565751;28;19925;-38
2022/09/16 19:51:30;;;;;;;;;;;11.50;99.90;;;;;;12558634;28;19932;-38
2022/09/16 19:57:32;;;;;;;;;;;11.50;99.90;;;;;;12547204;28;19940;-39
2022/09/16 20:03:36;;;;;;;;;;;11.40;99.90;;;;;;12580113;28;19935;-38
2022/09/16 20:09:38;;;;;;;;;;;11.40;99.90;;;;;;12593414;28;19925;-38
2022/09/16 20:15:39;;;;;;;;;;;11.30;99.90;;;;;;12569274;28;20020;-38
2022/09/16 20:21:41;;;;;;;;;;;11.30;99.90;;;;;;12547085;28;20439;-38
2022/09/16 20:27:43;;;;;;;;;;;11.40;99.90;;;;;;12582034;28;20038;-38
2022/09/16 20:33:45;;;;;;;;;;;11.20;99.90;;;;;;12567386;28;19929;-38
2022/09/16 20:39:47;;;;;;;;;;;11.20;99.90;;;;;;12567933;28;19931;-38
2022/09/16 20:45:49;;;;;;;;;;;11.10;99.90;;;;;;12561859;28;19936;-38
2022/09/16 20:51:51;;;;;;;;;;;11.00;99.90;;;;;;12566313;28;19925;-38
2022/09/16 20:57:52;;;;;;;;;;;11.10;99.90;;;;;;12572822;28;20403;-39
2022/09/16 21:03:55;;;;;;;;;;;11.00;99.90;;;;;;12576992;28;19932;-38
2022/09/16 21:09:57;;;;;;;;;;;11.10;99.90;;;;;;12589010;28;19925;-39
2022/09/16 21:15:59;;;;;;;;;;;11.00;99.90;;;;;;12550048;28;20078;-38
2022/09/16 21:22:02;;;;;;;;;;;11.00;99.90;;;;;;12543043;28;19924;-39
2022/09/16 21:28:07;;;;;;;;;;;11.00;99.90;;;;;;12547122;28;19997;-38
2022/09/16 21:34:13;;;;;;;;;;;10.90;99.90;;;;;;12581311;28;20538;-38
2022/09/16 21:40:15;;;;;;;;;;;11.00;99.90;;;;;;12572091;28;19947;-38
2022/09/16 21:46:19;;;;;;;;;;;10.80;99.90;;;;;;12592732;28;19929;-38
2022/09/16 21:52:20;;;;;;;;;;;10.90;99.90;;;;;;12569865;28;19925;-38
2022/09/16 21:58:22;;;;;;;;;;;10.90;99.90;;;;;;12567523;28;19974;-38
2022/09/16 22:04:24;;;;;;;;;;;10.80;99.90;;;;;;12557535;28;19925;-38
2022/09/16 22:10:26;;;;;;;;;;;10.80;99.90;;;;;;12579067;28;19925;-38
2022/09/16 22:16:30;;;;;;;;;;;10.80;99.90;;;;;;12567198;28;20299;-38
2022/09/16 22:22:32;;;;;;;;;;;10.70;99.90;;;;;;12569372;28;19932;-38
2022/09/16 22:28:35;;;;;;;;;;;10.80;99.90;;;;;;12570360;28;19951;-38
2022/09/16 22:34:36;;;;;;;;;;;10.80;99.90;;;;;;12585061;28;19969;-38
2022/09/16 22:40:38;;;;;;;;;;;10.80;99.90;;;;;;12588448;28;20018;-39
2022/09/16 22:46:44;;;;;;;;;;;10.90;99.90;;;;;;12552605;28;19928;-38
2022/09/16 22:52:46;;;;;;;;;;;10.90;99.90;;;;;;12591639;28;19929;-37
2022/09/16 22:58:51;;;;;;;;;;;11.00;99.90;;;;;;12589861;28;19924;-38
2022/09/16 23:04:53;;;;;;;;;;;10.90;99.90;;;;;;12588187;28;19924;-38
2022/09/16 23:10:55;;;;;;;;;;;11.10;99.90;;;;;;12597275;28;19924;-38
2022/09/16 23:16:57;;;;;;;;;;;11.00;99.90;;;;;;12586576;28;19932;-38
2022/09/16 23:23:00;;;;;;;;;;;10.90;99.90;;;;;;12584940;28;19932;-38
2022/09/16 23:29:03;;;;;;;;;;;11.00;99.90;;;;;;12580401;28;20376;-38
2022/09/16 23:35:04;;;;;;;;;;;11.00;99.90;;;;;;12566717;28;19928;-38
2022/09/16 23:41:11;;;;;;;;;;;10.90;99.90;;;;;;12591242;28;19974;-38
2022/09/16 23:47:13;;;;;;;;;;;11.00;99.90;;;;;;12563380;28;20399;-39
2022/09/16 23:53:16;;;;;;;;;;;11.10;99.90;;;;;;12555069;28;20118;-38
2022/09/16 23:59:17;;;;;;;;;;;11.10;99.90;;;;;;12566871;28;19924;-38
